SANTA FE DAM CA US current weather conditions

sailwx.info

Wind from 201 at 1 knots gusting 6

Air temperature 7.8° C
Dewpoint 6.9° C

Last reported at 2017-Feb-26 12:57 UTC.
Time now 2017-Feb-26 14:51 UTC

Location: N 34°08' W 117°57'.
View on Google Maps.

See reports from other nearby stations

  
Tides and Currents Weather Stations Pressure Air Temp Water Temp Dewpoint Dewpoint Depression Visibility Wind Speed Wind Dir Waves Ship Positions
date/time (UTC)wind fromknots sea level pressurealtimeterstation pressurevisibilityair tempwater tempwave heightnotes
2017-Feb-26 12:57 201 1 gusting 6 7.8
2017-Feb-26 11:57 287 3 gusting 7 8.9
2017-Feb-26 10:57 209 1 gusting 2 8.9
2017-Feb-26 09:57 128 0 gusting 3 8.3
2017-Feb-26 08:57 158 2 gusting 4 8.9
2017-Feb-26 07:57 350 2 gusting 3 6.7
2017-Feb-26 06:57 197 1 gusting 3 7.8
2017-Feb-26 05:57 221 0 gusting 2 10.6
2017-Feb-26 04:57 252 1 gusting 8 11.1
2017-Feb-26 03:57 250 2 gusting 6 11.1
2017-Feb-26 02:57 238 0 gusting 6 11.7
2017-Feb-26 01:57 220 4 gusting 7 13.3
2017-Feb-26 00:57 216 2 gusting 7 13.9
2017-Feb-25 23:57 210 4 gusting 11 15.6
2017-Feb-25 22:57 252 4 gusting 12 16.1
2017-Feb-25 21:57 260 6 gusting 12 16.7
2017-Feb-25 20:57 116 2 gusting 9 18.3
2017-Feb-25 19:57 158 4 gusting 9 18.3
2017-Feb-25 18:57 144 3 gusting 7 16.1
2017-Feb-25 17:57 155 4 gusting 9 14.4
2017-Feb-25 16:57 105 3 gusting 9 12.8
2017-Feb-25 15:57 055 4 gusting 13 10.6
2017-Feb-25 14:57 061 6 gusting 13 7.8
2017-Feb-25 13:57 053 5 gusting 12 6.7
2017-Feb-25 12:57 043 5 gusting 12 6.7
2017-Feb-25 11:57 110 1 gusting 8 6.1
2017-Feb-25 10:57 064 5 gusting 13 7.8
2017-Feb-25 09:57 057 4 gusting 11 7.8
2017-Feb-25 08:57 053 5 gusting 10 7.8
2017-Feb-25 07:57 042 3 gusting 13 8.3
2017-Feb-25 06:57 016 4 gusting 9 9.4
2017-Feb-25 05:57 028 4 gusting 9 8.3
2017-Feb-25 04:57 043 1 gusting 5 8.9
2017-Feb-25 03:57 269 1 gusting 4 6.7
2017-Feb-25 02:57 231 3 gusting 6 8.9
2017-Feb-25 01:57 239 4 gusting 13 12.2
2017-Feb-25 00:57 231 7 gusting 13 16.1
2017-Feb-24 23:57 269 4 gusting 9 17.8
2017-Feb-24 22:57 260 3 gusting 9 18.9
2017-Feb-24 21:57 195 5 gusting 10 17.8
2017-Feb-24 20:57 109 4 gusting 9 17.2
2017-Feb-24 19:57 015 3 gusting 10 17.2
2017-Feb-24 18:57 115 3 gusting 10 16.1
2017-Feb-24 17:57 152 3 gusting 8 13.9
2017-Feb-24 16:57 100 3 gusting 8 12.8
2017-Feb-24 15:57 056 4 gusting 13 8.9
2017-Feb-24 14:57 031 6 gusting 13 5.6